Time;durP1;ratioP1;P1;durP2;ratioP2;P2;SDS_P1;SDS_P2;PMS_P1;PMS_P2;Temp;Humidity;BMP_temperature;BMP_pressure;BME280_temperature;BME280_humidity;BME280_pressure;Samples;Min_cycle;Max_cycle;Signal;HPM_P1;HPM_P2
2023/07/24 00:00:40;;;;;;;10.13;5.68;;;;;;;26.47;44.77;99740.44;4859459;29;20030;-44
2023/07/24 00:03:06;;;;;;;8.88;5.78;;;;;;;26.01;45.26;99748.88;4859720;29;20045;-44
2023/07/24 00:05:31;;;;;;;10.00;5.93;;;;;;;25.88;45.61;99736.88;4859707;29;20029;-46
2023/07/24 00:07:57;;;;;;;8.73;5.85;;;;;;;25.64;45.95;99737.91;4859599;29;20026;-44
2023/07/24 00:10:22;;;;;;;7.80;5.47;;;;;;;25.65;46.01;99738.72;4860051;29;20033;-44
2023/07/24 00:12:47;;;;;;;8.05;5.22;;;;;;;25.59;46.08;99735.28;4859364;29;20493;-45
2023/07/24 00:15:13;;;;;;;11.27;5.20;;;;;;;25.66;45.43;99721.25;4859549;29;20029;-47
2023/07/24 00:17:38;;;;;;;10.25;5.85;;;;;;;25.94;45.23;99741.91;4859833;29;20383;-44
2023/07/24 00:20:05;;;;;;;11.50;6.05;;;;;;;26.08;44.90;99752.81;4859522;29;20331;-47
2023/07/24 00:22:31;;;;;;;7.70;5.40;;;;;;;25.92;45.42;99740.63;4859242;29;20494;-44
2023/07/24 00:24:56;;;;;;;8.55;5.45;;;;;;;26.06;45.53;99737.84;4859529;29;20120;-45
2023/07/24 00:27:21;;;;;;;9.50;5.57;;;;;;;25.82;45.96;99738.91;4859180;29;20033;-44
2023/07/24 00:29:47;;;;;;;9.40;5.97;;;;;;;25.60;48.72;99747.78;4859124;29;20185;-44
2023/07/24 00:32:12;;;;;;;10.27;5.80;;;;;;;25.28;50.65;99744.03;4859624;29;20473;-48
2023/07/24 00:34:38;;;;;;;8.43;5.70;;;;;;;25.27;51.36;99747.09;4859180;29;20033;-47
2023/07/24 00:37:03;;;;;;;9.52;5.50;;;;;;;25.31;52.93;99745.38;4858979;29;20155;-47
2023/07/24 00:39:29;;;;;;;8.10;5.15;;;;;;;24.77;57.55;99759.34;4858785;29;20410;-44
2023/07/24 00:41:55;;;;;;;8.07;5.50;;;;;;;24.74;58.57;99754.50;4858799;29;20033;-46
2023/07/24 00:44:20;;;;;;;7.88;5.20;;;;;;;24.78;58.82;99752.00;4859065;29;20063;-44
2023/07/24 00:46:46;;;;;;;8.80;5.55;;;;;;;24.46;59.91;99747.31;4858896;29;20090;-43
2023/07/24 00:49:12;;;;;;;9.57;5.53;;;;;;;24.45;60.66;99737.56;4859039;29;20038;-44
2023/07/24 00:51:38;;;;;;;8.63;5.00;;;;;;;24.77;59.61;99745.75;4858904;29;20036;-44
2023/07/24 00:54:05;;;;;;;8.70;5.38;;;;;;;24.28;62.00;99738.09;4858584;29;20041;-41
2023/07/24 00:56:32;;;;;;;8.85;5.63;;;;;;;23.84;64.68;99736.50;4858576;29;20154;-45
2023/07/24 00:58:57;;;;;;;7.80;5.30;;;;;;;23.80;65.54;99745.25;4858940;29;20057;-41
2023/07/24 01:01:23;;;;;;;7.07;5.13;;;;;;;23.87;65.98;99746.78;4858879;29;20131;-41
2023/07/24 01:03:49;;;;;;;9.07;5.75;;;;;;;23.75;66.77;99739.84;4858667;29;20123;-44
2023/07/24 01:06:15;;;;;;;9.93;6.28;;;;;;;23.66;67.73;99747.00;4858645;29;20514;-46
2023/07/24 01:08:40;;;;;;;8.02;5.70;;;;;;;23.85;67.46;99751.72;4858861;29;20034;-46
2023/07/24 01:11:32;;;;;;;7.88;5.88;;;;;;;23.79;69.13;99742.81;4858640;29;20038;-46
2023/07/24 01:14:13;;;;;;;10.13;5.90;;;;;;;23.87;69.13;99752.22;4846645;29;20038;-45
2023/07/24 01:16:42;;;;;;;9.45;6.00;;;;;;;23.95;69.05;99737.97;4858485;29;20033;-44
2023/07/24 01:19:20;;;;;;;8.27;6.18;;;;;;;23.93;69.32;99740.19;4858581;29;20512;-46
2023/07/24 01:22:15;;;;;;;8.93;5.90;;;;;;;23.75;70.25;99745.28;4856774;29;20058;-43
2023/07/24 01:24:41;;;;;;;9.80;5.35;;;;;;;23.80;70.71;99747.97;4807054;29;20404;-45
2023/07/24 01:27:07;;;;;;;7.65;5.72;;;;;;;23.90;71.41;99757.09;4839911;29;20049;-44
2023/07/24 01:29:32;;;;;;;7.65;5.30;;;;;;;24.05;70.85;99750.66;4855421;29;20505;-44
2023/07/24 01:31:58;;;;;;;8.00;5.43;;;;;;;23.69;73.12;99743.72;4858504;29;20104;-46
2023/07/24 01:34:23;;;;;;;7.28;5.93;;;;;;;23.85;73.69;99757.94;4858348;29;20041;-44
2023/07/24 01:36:50;;;;;;;8.63;6.10;;;;;;;23.80;74.26;99768.91;4858068;29;20029;-46
2023/07/24 01:39:18;;;;;;;8.75;6.07;;;;;;;23.74;75.22;99768.13;4858192;29;20439;-44
2023/07/24 01:41:43;;;;;;;9.45;5.90;;;;;;;23.74;75.69;99761.84;4876356;29;20125;-45
2023/07/24 01:44:09;;;;;;;8.38;6.25;;;;;;;23.44;77.83;99766.56;4876910;29;20120;-44
2023/07/24 01:46:34;;;;;;;9.85;5.88;;;;;;;23.40;78.72;99766.34;4876687;29;20060;-48
2023/07/24 01:49:00;;;;;;;9.15;6.78;;;;;;;23.55;78.63;99775.38;4876888;29;20060;-48
2023/07/24 01:51:25;;;;;;;11.85;6.32;;;;;;;23.61;78.49;99769.63;4876657;29;20033;-47
2023/07/24 01:53:50;;;;;;;10.02;6.38;;;;;;;23.63;78.64;99774.78;4876637;29;20029;-46
2023/07/24 01:56:16;;;;;;;8.73;6.82;;;;;;;23.61;79.03;99774.25;4876959;29;20025;-46
2023/07/24 01:58:41;;;;;;;10.88;7.05;;;;;;;23.56;79.41;99774.31;4876714;29;20594;-44
2023/07/24 02:01:07;;;;;;;11.65;7.40;;;;;;;23.47;79.63;99771.41;4868613;29;20078;-45
2023/07/24 02:03:32;;;;;;;9.82;6.95;;;;;;;23.40;80.62;99766.34;4858123;29;20033;-45
2023/07/24 02:05:57;;;;;;;9.23;7.32;;;;;;;23.46;80.59;99766.28;4858236;29;20028;-43
2023/07/24 02:08:23;;;;;;;11.80;7.65;;;;;;;23.29;81.25;99769.44;4861975;29;20093;-44
2023/07/24 02:10:50;;;;;;;12.48;7.88;;;;;;;23.31;80.67;99768.06;4861806;29;20493;-43
2023/07/24 02:13:15;;;;;;;10.50;7.55;;;;;;;23.30;81.58;99769.13;4861997;29;20124;-44
2023/07/24 02:15:40;;;;;;;10.07;7.65;;;;;;;23.09;82.90;99767.72;4861986;29;20375;-44
2023/07/24 02:18:06;;;;;;;10.98;7.95;;;;;;;22.95;85.20;99765.66;4861754;29;20414;-47
2023/07/24 02:20:31;;;;;;;16.42;7.95;;;;;;;23.22;83.77;99764.34;4861404;29;20022;-43
2023/07/24 02:22:57;;;;;;;13.68;8.52;;;;;;;23.20;84.07;99761.09;4861564;29;20033;-45
2023/07/24 02:25:22;;;;;;;12.85;8.93;;;;;;;23.35;83.62;99769.09;4862267;29;20030;-44
2023/07/24 02:27:48;;;;;;;19.00;12.23;;;;;;;23.14;85.14;99779.34;4859154;29;20033;-43
2023/07/24 02:30:13;;;;;;;17.40;11.80;;;;;;;23.40;83.93;99771.75;4843336;29;20042;-43
2023/07/24 02:32:38;;;;;;;19.52;12.75;;;;;;;23.26;85.16;99770.81;4843250;29;20026;-47
2023/07/24 02:35:04;;;;;;;19.75;13.00;;;;;;;23.06;86.60;99776.47;4842535;29;20378;-44
2023/07/24 02:37:30;;;;;;;22.75;13.52;;;;;;;23.05;86.96;99766.69;4842387;29;20483;-43
2023/07/24 02:39:55;;;;;;;20.90;13.23;;;;;;;23.02;87.25;99768.03;4847691;29;20021;-46
2023/07/24 02:42:21;;;;;;;24.83;13.18;;;;;;;22.93;87.95;99777.91;4860378;29;20061;-46
2023/07/24 02:44:46;;;;;;;22.65;12.68;;;;;;;23.09;87.03;99779.38;4860711;29;20028;-43
2023/07/24 02:47:11;;;;;;;21.58;11.95;;;;;;;23.12;87.17;99791.59;4860494;29;20052;-45
2023/07/24 02:49:37;;;;;;;20.08;12.23;;;;;;;23.21;86.19;99790.69;4860492;29;20029;-45
2023/07/24 02:52:03;;;;;;;21.77;12.40;;;;;;;23.13;86.42;99790.47;4860719;29;20088;-45
2023/07/24 02:54:28;;;;;;;19.13;12.05;;;;;;;23.26;85.88;99780.88;4860573;29;20033;-43
2023/07/24 02:56:53;;;;;;;19.55;11.82;;;;;;;23.22;85.87;99773.28;4860718;29;20474;-44
2023/07/24 02:59:19;;;;;;;19.92;12.30;;;;;;;23.40;84.54;99779.09;4860430;29;20104;-46
2023/07/24 03:01:44;;;;;;;23.65;12.85;;;;;;;22.83;88.53;99782.31;4853886;29;20134;-47
2023/07/24 03:04:10;;;;;;;25.08;12.35;;;;;;;22.83;89.21;99781.50;4842039;29;20396;-42
2023/07/24 03:06:35;;;;;;;19.85;11.82;;;;;;;22.72;89.95;99785.38;4842162;29;20026;-45
2023/07/24 03:09:01;;;;;;;20.85;11.88;;;;;;;22.36;92.69;99781.00;4841824;29;20428;-43
2023/07/24 03:11:26;;;;;;;21.17;11.82;;;;;;;22.65;90.96;99772.13;4842142;29;20029;-46
2023/07/24 03:13:52;;;;;;;27.73;12.45;;;;;;;22.77;90.87;99779.91;4841864;29;20494;-43
2023/07/24 03:16:19;;;;;;;29.63;13.68;;;;;;;22.74;90.47;99784.00;4841911;29;20033;-44
2023/07/24 03:18:44;;;;;;;23.52;12.98;;;;;;;22.54;92.47;99784.16;4841693;29;20433;-44
2023/07/24 03:21:10;;;;;;;28.15;13.10;;;;;;;22.50;92.67;99789.31;4841457;29;20037;-44
2023/07/24 03:23:35;;;;;;;26.38;13.82;;;;;;;22.51;92.49;99790.94;4841627;29;20038;-44
2023/07/24 03:26:01;;;;;;;34.75;14.85;;;;;;;22.65;91.99;99781.06;4841738;29;20033;-44
2023/07/24 03:28:26;;;;;;;27.73;13.32;;;;;;;22.44;93.16;99785.84;4841355;29;20054;-45
2023/07/24 03:30:52;;;;;;;28.88;14.43;;;;;;;22.74;91.38;99785.91;4841607;29;20026;-43
2023/07/24 03:33:17;;;;;;;31.48;14.27;;;;;;;22.93;90.02;99784.13;4841577;29;20093;-44
2023/07/24 03:35:43;;;;;;;24.23;13.02;;;;;;;23.15;88.14;99796.44;4841166;29;20509;-44
2023/07/24 03:38:08;;;;;;;25.00;13.15;;;;;;;22.98;88.77;99775.94;4841696;29;20110;-44
2023/07/24 03:40:34;;;;;;;23.52;12.75;;;;;;;23.03;88.30;99784.06;4851326;29;20108;-42
2023/07/24 03:42:59;;;;;;;22.95;12.75;;;;;;;23.20;87.05;99791.75;4859494;29;20060;-43
2023/07/24 03:45:24;;;;;;;20.33;12.75;;;;;;;23.11;87.73;99795.38;4859656;29;20406;-44
2023/07/24 03:47:50;;;;;;;25.63;13.13;;;;;;;23.18;87.19;99799.38;4859069;29;20157;-45
2023/07/24 03:50:16;;;;;;;26.25;13.70;;;;;;;23.07;88.41;99791.63;4859659;29;20018;-42
2023/07/24 03:52:42;;;;;;;24.90;13.50;;;;;;;23.19;87.39;99789.38;4859263;29;20032;-43
2023/07/24 03:55:07;;;;;;;23.13;13.93;;;;;;;23.40;85.81;99782.63;4859543;29;20022;-44
2023/07/24 03:57:34;;;;;;;22.90;13.05;;;;;;;23.65;84.00;99786.16;4859235;29;20093;-42
2023/07/24 03:59:59;;;;;;;21.52;13.23;;;;;;;23.68;83.32;99784.75;4859303;29;20566;-41
2023/07/24 04:02:25;;;;;;;19.92;12.48;;;;;;;23.95;81.64;99785.00;4859452;29;20030;-43
2023/07/24 04:04:50;;;;;;;21.58;12.82;;;;;;;24.07;80.75;99787.28;4859446;29;20029;-45
2023/07/24 04:07:15;;;;;;;22.85;13.18;;;;;;;23.87;80.97;99774.75;4859436;29;20034;-44
2023/07/24 04:09:41;;;;;;;20.98;12.98;;;;;;;24.22;79.69;99786.28;4859355;29;20086;-43
2023/07/24 04:12:06;;;;;;;25.10;12.88;;;;;;;24.25;79.25;99779.44;4859159;29;20025;-42
2023/07/24 04:14:32;;;;;;;20.73;12.70;;;;;;;24.46;78.53;99788.09;4859013;29;20033;-42
2023/07/24 04:16:57;;;;;;;20.52;12.25;;;;;;;24.60;77.25;99791.75;4859266;29;20025;-44
2023/07/24 04:19:23;;;;;;;20.60;12.88;;;;;;;24.51;77.66;99785.31;4859627;29;20391;-43
2023/07/24 04:21:48;;;;;;;20.45;12.02;;;;;;;24.83;76.23;99787.28;4859565;29;20029;-42
2023/07/24 04:24:13;;;;;;;20.83;12.38;;;;;;;25.19;74.74;99800.31;4859562;29;20029;-42
2023/07/24 04:26:39;;;;;;;21.50;12.90;;;;;;;25.23;74.91;99808.72;4859193;29;20053;-45
2023/07/24 04:29:05;;;;;;;21.50;13.10;;;;;;;25.47;73.62;99800.34;4859159;29;20120;-45
2023/07/24 04:31:31;;;;;;;21.58;13.30;;;;;;;25.59;72.71;99805.31;4855202;29;20030;-42
2023/07/24 04:33:56;;;;;;;19.92;12.25;;;;;;;25.71;70.86;99806.41;4840667;29;20424;-44
2023/07/24 04:36:22;;;;;;;20.00;12.43;;;;;;;25.78;70.28;99807.94;4840941;29;20030;-42
2023/07/24 04:38:47;;;;;;;21.00;11.25;;;;;;;25.91;68.86;99807.13;4840623;29;20034;-42
2023/07/24 04:41:12;;;;;;;16.65;11.05;;;;;;;26.15;68.53;99817.81;4844818;29;20029;-43
2023/07/24 04:43:38;;;;;;;17.42;10.57;;;;;;;26.53;66.29;99812.88;4841694;29;20150;-43
2023/07/24 04:46:03;;;;;;;17.15;10.50;;;;;;;26.75;64.66;99813.22;4841726;29;20148;-45
2023/07/24 04:48:29;;;;;;;19.15;10.23;;;;;;;26.53;64.89;99815.59;4853716;29;20025;-42
2023/07/24 04:50:55;;;;;;;17.13;9.75;;;;;;;26.44;65.35;99813.91;4840773;29;20018;-43
2023/07/24 04:53:21;;;;;;;17.42;10.75;;;;;;;26.36;66.24;99814.66;4840033;29;20034;-43
2023/07/24 04:55:46;;;;;;;19.50;10.93;;;;;;;26.53;65.86;99807.41;4839214;29;20029;-42
2023/07/24 04:58:12;;;;;;;18.73;10.93;;;;;;;26.59;65.74;99816.31;4840164;29;20091;-44
2023/07/24 05:00:37;;;;;;;17.08;10.02;;;;;;;26.84;65.00;99814.09;4840239;29;20073;-46
2023/07/24 05:03:03;;;;;;;18.35;10.00;;;;;;;27.10;64.11;99819.75;4839910;29;20033;-44
2023/07/24 05:05:28;;;;;;;17.30;11.10;;;;;;;27.57;62.20;99819.34;4840146;29;20185;-42
2023/07/24 05:07:54;;;;;;;17.27;10.60;;;;;;;27.90;60.89;99816.28;4840047;29;20029;-44
2023/07/24 05:10:19;;;;;;;15.82;10.50;;;;;;;28.38;58.82;99827.13;4839184;29;20018;-46
2023/07/24 05:12:44;;;;;;;14.85;10.80;;;;;;;28.61;57.38;99818.81;4839369;29;20428;-44
2023/07/24 05:15:10;;;;;;;14.65;10.45;;;;;;;28.70;57.20;99816.09;4839453;29;20041;-44
2023/07/24 05:17:35;;;;;;;15.35;10.30;;;;;;;28.55;57.94;99814.63;4823239;29;20065;-43
2023/07/24 05:20:01;;;;;;;16.52;10.20;;;;;;;29.16;55.90;99817.31;4839355;29;20388;-44
2023/07/24 05:22:26;;;;;;;16.45;10.85;;;;;;;28.94;55.82;99816.38;4839218;29;20032;-43
2023/07/24 05:24:52;;;;;;;16.30;10.57;;;;;;;28.54;57.59;99823.97;4839162;29;20040;-42
2023/07/24 05:27:17;;;;;;;17.65;11.70;;;;;;;28.07;58.49;99819.88;4838960;29;20445;-43
2023/07/24 05:29:43;;;;;;;18.35;11.10;;;;;;;28.49;57.73;99824.09;4823672;29;20061;-44
2023/07/24 05:32:08;;;;;;;17.75;10.23;;;;;;;29.05;55.53;99827.78;4840190;29;20113;-44
2023/07/24 05:34:34;;;;;;;15.68;11.15;;;;;;;29.49;53.98;99839.44;4839787;29;20505;-43
2023/07/24 05:36:59;;;;;;;17.90;11.40;;;;;;;29.89;52.73;99843.81;4838986;29;20026;-43
2023/07/24 05:39:25;;;;;;;16.73;10.75;;;;;;;30.23;51.89;99836.53;4839867;29;20456;-44
2023/07/24 05:41:50;;;;;;;18.60;10.35;;;;;;;31.01;49.61;99835.94;4838699;29;20059;-46
2023/07/24 05:44:16;;;;;;;16.35;10.98;;;;;;;30.45;50.62;99832.72;4839699;29;20038;-42
2023/07/24 05:46:41;;;;;;;15.35;10.77;;;;;;;30.19;51.91;99828.97;4839576;29;20478;-42
2023/07/24 05:49:06;;;;;;;17.65;10.82;;;;;;;30.06;51.56;99830.00;4839391;29;20022;-51
2023/07/24 05:51:32;;;;;;;18.52;11.18;;;;;;;30.06;51.14;99826.47;4839288;29;20029;-43
2023/07/24 05:53:57;;;;;;;18.77;11.13;;;;;;;29.81;52.02;99823.53;4839577;29;20427;-45
2023/07/24 05:56:23;;;;;;;15.18;10.45;;;;;;;30.19;50.75;99817.97;4839473;29;20411;-43
2023/07/24 05:58:49;;;;;;;17.05;10.75;;;;;;;30.81;48.46;99826.56;4839920;29;20459;-45
2023/07/24 06:01:15;;;;;;;17.58;10.82;;;;;;;30.88;48.35;99821.34;4839081;29;20075;-45
2023/07/24 06:03:40;;;;;;;15.93;10.25;;;;;;;30.99;48.18;99819.00;4839221;29;20200;-44
2023/07/24 06:06:05;;;;;;;14.48;10.38;;;;;;;30.98;47.93;99820.16;4839528;29;20030;-42
2023/07/24 06:08:31;;;;;;;16.80;10.27;;;;;;;31.43;46.41;99804.75;4839613;29;20030;-43
2023/07/24 06:10:56;;;;;;;18.25;10.55;;;;;;;31.85;45.22;99813.59;4840097;29;20022;-42
2023/07/24 06:13:22;;;;;;;14.00;10.57;;;;;;;31.92;44.55;99810.28;4823393;29;20178;-41
2023/07/24 06:15:48;;;;;;;15.40;10.13;;;;;;;32.37;44.00;99809.31;4839703;29;20483;-43
2023/07/24 06:18:14;;;;;;;14.70;10.68;;;;;;;33.09;41.88;99814.06;4840090;29;20026;-42
2023/07/24 06:20:40;;;;;;;16.25;10.57;;;;;;;32.66;42.09;99799.16;4839719;29;20028;-43
2023/07/24 06:23:05;;;;;;;14.45;10.50;;;;;;;32.20;43.05;99785.63;4839760;29;20535;-43
2023/07/24 06:25:31;;;;;;;19.73;12.18;;;;;;;32.48;43.15;99807.69;4840031;29;20037;-42
2023/07/24 06:27:57;;;;;;;15.63;10.82;;;;;;;32.54;42.57;99791.72;4839741;29;20174;-43
2023/07/24 06:30:23;;;;;;;16.02;10.95;;;;;;;32.95;41.11;99791.66;4839454;29;20106;-43
2023/07/24 06:32:48;;;;;;;15.05;10.88;;;;;;;33.18;40.60;99784.41;4839658;29;20074;-42
2023/07/24 06:35:14;;;;;;;14.38;10.38;;;;;;;33.54;40.25;99787.25;4839596;29;20041;-44
2023/07/24 06:37:39;;;;;;;15.68;10.48;;;;;;;33.21;40.35;99785.69;4839637;29;20475;-43
2023/07/24 06:40:07;;;;;;;13.20;10.02;;;;;;;33.16;40.71;99772.16;4839539;29;20022;-45
2023/07/24 06:42:32;;;;;;;17.15;10.52;;;;;;;33.59;40.09;99778.72;4839431;29;20034;-44
2023/07/24 06:44:57;;;;;;;17.00;10.52;;;;;;;33.74;39.25;99783.44;4839357;29;20497;-43
2023/07/24 06:47:23;;;;;;;19.77;10.43;;;;;;;33.31;39.41;99779.63;4839348;29;20086;-43
2023/07/24 06:49:48;;;;;;;15.40;9.95;;;;;;;33.23;40.00;99781.41;4839233;29;20022;-43
2023/07/24 06:52:14;;;;;;;16.00;10.65;;;;;;;33.24;39.01;99785.78;4840004;29;20042;-43
2023/07/24 06:54:39;;;;;;;16.08;10.68;;;;;;;34.01;38.33;99787.19;4842540;29;20026;-44
2023/07/24 06:57:04;;;;;;;17.77;10.38;;;;;;;33.93;38.25;99790.97;4842718;29;20042;-44
2023/07/24 06:59:30;;;;;;;15.75;10.32;;;;;;;33.74;38.31;99786.19;4843169;29;20474;-42
2023/07/24 07:01:55;;;;;;;15.80;10.30;;;;;;;33.27;38.49;99770.47;4842540;29;20113;-42
2023/07/24 07:04:21;;;;;;;16.77;10.73;;;;;;;33.60;38.77;99783.84;4841980;29;20112;-47
2023/07/24 07:06:46;;;;;;;17.42;9.65;;;;;;;34.12;37.69;99783.84;4841108;29;20049;-44
2023/07/24 07:09:12;;;;;;;15.70;9.98;;;;;;;34.74;36.57;99775.69;4841166;29;20045;-43
2023/07/24 07:11:38;;;;;;;13.02;9.70;;;;;;;34.65;36.69;99767.59;4841172;29;20053;-42
2023/07/24 07:14:04;;;;;;;13.57;9.55;;;;;;;35.81;35.13;99772.00;4841529;29;20033;-43
2023/07/24 07:16:29;;;;;;;16.42;11.23;;;;;;;35.56;35.12;99776.34;4842460;29;20082;-43
2023/07/24 07:18:55;;;;;;;13.25;10.05;;;;;;;35.54;35.32;99771.16;4842474;29;20426;-42
2023/07/24 07:21:20;;;;;;;15.05;10.00;;;;;;;35.68;35.07;99767.03;4841995;29;20034;-44
2023/07/24 07:23:45;;;;;;;15.88;10.43;;;;;;;35.91;34.66;99762.25;4842181;29;20026;-41
2023/07/24 07:26:11;;;;;;;15.00;10.05;;;;;;;36.09;33.52;99753.38;4842159;29;20030;-43
2023/07/24 07:28:37;;;;;;;15.32;9.75;;;;;;;36.28;32.74;99756.03;4850511;29;20053;-46
2023/07/24 07:31:03;;;;;;;13.98;10.00;;;;;;;35.47;33.83;99759.19;4860379;29;20555;-43
2023/07/24 07:33:29;;;;;;;14.25;10.70;;;;;;;34.85;34.12;99760.13;4860853;29;20029;-43
2023/07/24 07:35:54;;;;;;;16.88;10.20;;;;;;;34.55;34.96;99760.72;4860410;29;20037;-43
2023/07/24 07:38:22;;;;;;;14.20;9.52;;;;;;;35.00;34.17;99756.44;4860030;29;20161;-42
2023/07/24 07:40:47;;;;;;;13.90;8.63;;;;;;;35.64;33.64;99747.59;4872500;29;20057;-41
2023/07/24 07:43:13;;;;;;;18.77;9.68;;;;;;;36.03;33.01;99744.59;4878400;29;20079;-45
2023/07/24 07:45:38;;;;;;;17.13;9.65;;;;;;;36.33;32.11;99746.59;4878703;29;20036;-42
2023/07/24 07:48:04;;;;;;;13.90;10.25;;;;;;;36.39;31.65;99745.06;4878666;29;20037;-41
2023/07/24 07:50:30;;;;;;;13.60;10.38;;;;;;;36.18;32.32;99743.63;4878473;29;20033;-42
2023/07/24 07:52:55;;;;;;;15.38;9.93;;;;;;;36.01;33.23;99741.41;4878185;29;20039;-42
2023/07/24 07:55:21;;;;;;;13.02;9.85;;;;;;;36.40;32.89;99738.34;4878895;29;20036;-41
2023/07/24 07:57:46;;;;;;;14.63;10.13;;;;;;;36.49;32.33;99738.84;4878992;29;20036;-42
2023/07/24 08:00:12;;;;;;;14.68;9.50;;;;;;;36.69;31.64;99736.72;4878439;29;20354;-44
2023/07/24 08:02:39;;;;;;;15.40;10.05;;;;;;;37.65;30.83;99733.16;4878332;29;20036;-43
2023/07/24 08:05:09;;;;;;;14.98;10.02;;;;;;;36.86;31.57;99726.16;4877256;29;20117;-43
2023/07/24 08:07:34;;;;;;;13.38;10.30;;;;;;;35.71;32.87;99731.13;4878290;29;20025;-46
2023/07/24 08:10:00;;;;;;;12.48;9.88;;;;;;;35.73;33.09;99730.75;4878225;29;20065;-45
2023/07/24 08:12:25;;;;;;;14.35;9.90;;;;;;;35.69;32.80;99727.16;4878380;29;20029;-43
2023/07/24 08:14:50;;;;;;;13.98;10.05;;;;;;;35.60;33.72;99724.59;4878203;29;20101;-44
2023/07/24 08:17:16;;;;;;;13.50;9.63;;;;;;;35.69;33.51;99716.88;4877850;29;20366;-42
2023/07/24 08:19:41;;;;;;;13.90;9.88;;;;;;;35.62;33.05;99719.50;4877751;29;20086;-43
2023/07/24 08:22:07;;;;;;;13.27;9.95;;;;;;;35.94;33.08;99717.19;4877716;29;20097;-45
2023/07/24 08:24:35;;;;;;;14.32;9.90;;;;;;;36.24;33.24;99715.63;4877815;29;20025;-45
2023/07/24 08:27:01;;;;;;;12.68;9.50;;;;;;;36.36;32.01;99724.44;4878344;29;20028;-43
2023/07/24 08:29:26;;;;;;;16.88;10.73;;;;;;;36.10;32.80;99722.56;4863171;29;20120;-43
2023/07/24 08:31:52;;;;;;;13.95;10.63;;;;;;;36.41;32.66;99720.56;4859096;29;20497;-44
2023/07/24 08:34:17;;;;;;;14.85;10.15;;;;;;;36.32;32.91;99714.50;4859184;29;20086;-43
2023/07/24 08:36:43;;;;;;;16.05;10.98;;;;;;;36.55;32.96;99719.91;4859304;29;20109;-44
2023/07/24 08:39:08;;;;;;;11.27;9.10;;;;;;;36.31;32.61;99719.28;4859268;29;20048;-44
2023/07/24 08:41:35;;;;;;;13.50;10.02;;;;;;;35.94;32.24;99713.63;4859239;29;20500;-47
2023/07/24 08:44:01;;;;;;;11.52;9.57;;;;;;;35.82;32.67;99707.16;4858966;29;20135;-41
2023/07/24 08:46:27;;;;;;;12.10;8.57;;;;;;;36.32;32.01;99701.47;4858809;29;20490;-45
2023/07/24 08:48:54;;;;;;;11.07;8.82;;;;;;;36.59;31.85;99696.63;4858743;29;20123;-44
2023/07/24 08:51:22;;;;;;;11.80;8.60;;;;;;;36.17;32.04;99686.66;4858993;29;20033;-42
2023/07/24 08:53:48;;;;;;;10.18;8.75;;;;;;;35.00;33.78;99687.34;4859068;29;20563;-42
2023/07/24 08:56:14;;;;;;;13.07;9.68;;;;;;;34.92;34.04;99690.34;4859248;29;20063;-44
2023/07/24 08:58:40;;;;;;;12.75;9.52;;;;;;;35.15;34.26;99693.09;4859515;29;20025;-44
2023/07/24 09:01:07;;;;;;;12.13;9.38;;;;;;;35.43;34.07;99690.81;4858679;29;20025;-43
2023/07/24 09:03:33;;;;;;;11.52;9.02;;;;;;;35.73;33.32;99687.28;4858856;29;20498;-42
2023/07/24 09:06:01;;;;;;;13.23;9.38;;;;;;;36.38;31.97;99682.53;4858582;29;20025;-43
2023/07/24 09:08:35;;;;;;;13.80;9.57;;;;;;;36.89;32.18;99678.28;4858822;29;20025;-43
2023/07/24 09:11:03;;;;;;;14.80;9.23;;;;;;;36.30;31.79;99683.63;4858575;29;20022;-45
2023/07/24 09:13:29;;;;;;;11.23;8.60;;;;;;;35.98;32.23;99676.50;4858814;29;20032;-45
2023/07/24 09:15:55;;;;;;;12.57;8.75;;;;;;;36.09;32.16;99687.72;4858628;29;20040;-44
2023/07/24 09:18:21;;;;;;;9.82;7.90;;;;;;;35.95;31.60;99679.25;4858777;29;20025;-44
2023/07/24 09:20:47;;;;;;;12.48;7.70;;;;;;;35.80;30.83;99675.50;4858529;29;20128;-41
2023/07/24 09:23:14;;;;;;;9.68;7.18;;;;;;;35.89;30.57;99681.56;4859020;29;20116;-43
2023/07/24 09:25:42;;;;;;;9.68;7.25;;;;;;;36.14;29.62;99673.53;4858147;29;20029;-43
2023/07/24 09:28:11;;;;;;;9.27;6.90;;;;;;;35.84;30.04;99667.25;4858622;29;20056;-44
2023/07/24 09:30:38;;;;;;;11.43;7.60;;;;;;;35.74;30.69;99665.94;4858353;29;20029;-44
2023/07/24 09:33:03;;;;;;;10.40;7.15;;;;;;;36.07;30.24;99661.59;4858115;29;20028;-43
2023/07/24 09:35:28;;;;;;;9.75;7.63;;;;;;;36.55;29.81;99662.50;4858187;29;20025;-43
2023/07/24 09:38:08;;;;;;;9.38;7.30;;;;;;;35.99;30.70;99661.50;4858408;29;20040;-42
2023/07/24 09:40:43;;;;;;;11.45;7.93;;;;;;;36.35;30.29;99650.06;4857940;29;20134;-42
2023/07/24 09:43:19;;;;;;;11.38;7.88;;;;;;;36.31;30.82;99651.97;4858360;29;20029;-43
2023/07/24 09:45:45;;;;;;;9.57;8.27;;;;;;;36.16;30.31;99634.41;4858247;29;20455;-42
2023/07/24 09:48:14;;;;;;;10.95;8.23;;;;;;;36.11;30.85;99632.75;4858361;29;20033;-43
2023/07/24 09:50:40;;;;;;;9.85;7.68;;;;;;;36.54;30.46;99629.66;4858507;29;20025;-42
2023/07/24 09:53:12;;;;;;;10.32;8.00;;;;;;;36.72;30.34;99625.06;4858156;29;20029;-44
2023/07/24 09:56:04;;;;;;;15.60;8.13;;;;;;;36.42;31.18;99616.06;4858248;29;20053;-44
2023/07/24 09:58:29;;;;;;;11.13;7.85;;;;;;;35.57;31.36;99615.50;4847854;29;20430;-44
2023/07/24 10:00:56;;;;;;;10.88;7.80;;;;;;;35.72;30.92;99610.97;4858472;29;20494;-44
2023/07/24 10:03:22;;;;;;;11.82;7.50;;;;;;;35.97;29.75;99608.50;4858442;29;20108;-43
2023/07/24 10:05:48;;;;;;;9.70;7.80;;;;;;;36.18;30.26;99607.94;4858180;29;20029;-44
2023/07/24 10:08:18;;;;;;;10.57;7.90;;;;;;;35.99;30.85;99603.38;4858495;29;20025;-45
2023/07/24 10:10:44;;;;;;;10.80;8.13;;;;;;;36.43;30.54;99603.84;4857953;29;20082;-45
2023/07/24 10:13:14;;;;;;;11.82;8.20;;;;;;;37.17;30.38;99594.53;4858127;29;20034;-47
2023/07/24 10:15:43;;;;;;;11.73;7.93;;;;;;;37.25;29.48;99596.16;4858136;29;20026;-44
2023/07/24 10:18:09;;;;;;;12.57;8.23;;;;;;;37.11;28.95;99593.25;4857935;29;20058;-43
2023/07/24 10:20:36;;;;;;;11.43;8.60;;;;;;;37.11;29.28;99590.50;4857950;29;20034;-43
2023/07/24 10:23:03;;;;;;;15.65;8.07;;;;;;;37.01;29.80;99582.91;4857513;29;20578;-43
2023/07/24 10:25:32;;;;;;;10.57;8.10;;;;;;;36.82;29.75;99581.19;4857685;29;20048;-44
2023/07/24 10:28:07;;;;;;;11.68;8.20;;;;;;;36.62;30.33;99575.09;4859275;29;20058;-44
2023/07/24 10:30:39;;;;;;;12.20;8.60;;;;;;;36.68;29.45;99570.81;4861549;29;20026;-42
2023/07/24 10:33:10;;;;;;;11.20;8.20;;;;;;;36.11;30.14;99571.84;4861585;29;20054;-41
2023/07/24 10:35:47;;;;;;;12.43;8.07;;;;;;;36.90;28.82;99566.19;4861620;29;20025;-43
2023/07/24 10:38:14;;;;;;;11.80;7.93;;;;;;;37.35;27.68;99562.13;4861348;29;20026;-44
2023/07/24 10:40:41;;;;;;;10.55;7.90;;;;;;;37.33;28.03;99558.94;4861045;29;20029;-44
2023/07/24 10:43:08;;;;;;;10.98;7.90;;;;;;;37.50;27.75;99546.34;4861389;29;20626;-41
2023/07/24 10:45:50;;;;;;;11.82;8.57;;;;;;;37.61;27.62;99543.63;4861169;29;20021;-43
2023/07/24 10:48:21;;;;;;;11.48;8.23;;;;;;;37.14;28.33;99542.59;4861371;29;20084;-42
2023/07/24 10:50:49;;;;;;;11.27;8.18;;;;;;;37.38;27.87;99555.03;4861257;29;20157;-41
2023/07/24 10:53:16;;;;;;;;;;;;;;;37.17;27.59;99530.75;4861489;29;20033;-44
2023/07/24 10:55:43;;;;;;;10.90;8.15;;;;;;;37.07;27.96;99525.91;4860745;29;19916;-45
2023/07/24 10:58:09;;;;;;;10.10;7.68;;;;;;;36.74;28.07;99519.38;4861169;29;20149;-46
2023/07/24 11:00:34;;;;;;;9.57;8.13;;;;;;;36.90;27.21;99505.22;4861039;29;20062;-43
2023/07/24 11:03:00;;;;;;;11.27;7.95;;;;;;;37.05;28.08;99503.31;4861173;29;20018;-45
2023/07/24 11:05:26;;;;;;;9.05;7.40;;;;;;;38.03;26.70;99496.91;4860739;29;20132;-43
2023/07/24 11:07:52;;;;;;;10.20;7.85;;;;;;;38.63;26.63;99498.94;4860937;29;20037;-45
2023/07/24 11:10:22;;;;;;;11.55;8.20;;;;;;;37.33;26.02;99495.13;4860812;29;20033;-43
2023/07/24 11:12:48;;;;;;;11.27;8.05;;;;;;;36.57;27.33;99495.88;4860779;29;20139;-42
2023/07/24 11:15:14;;;;;;;10.88;8.20;;;;;;;37.03;25.86;99486.28;4861029;29;20438;-44
2023/07/24 11:17:42;;;;;;;10.95;8.30;;;;;;;37.42;27.12;99482.91;4860465;29;20386;-42
2023/07/24 11:20:11;;;;;;;10.55;8.07;;;;;;;37.41;26.92;99484.88;4860889;29;20029;-40